createdAt,value
2018-07-27T00:00:51.229Z,47.80
2018-07-27T00:03:19.555Z,48.20
2018-07-27T00:05:47.872Z,48.30
2018-07-27T00:08:16.115Z,47.90
2018-07-27T00:10:44.325Z,48.00
2018-07-27T00:13:12.577Z,48.40
2018-07-27T00:15:40.802Z,49.00
2018-07-27T00:18:09.034Z,48.60
2018-07-27T00:20:37.394Z,49.00
2018-07-27T00:23:05.801Z,48.90
2018-07-27T00:30:38.993Z,49.20
2018-07-27T00:33:07.271Z,49.40
2018-07-27T00:35:35.493Z,49.50
2018-07-27T00:38:03.675Z,49.80
2018-07-27T00:40:31.907Z,50.00
2018-07-27T00:43:00.118Z,50.50
2018-07-27T00:45:28.339Z,51.40
2018-07-27T00:47:56.569Z,50.80
2018-07-27T00:50:24.779Z,51.40
2018-07-27T00:52:53.019Z,51.70
2018-07-27T00:55:21.232Z,51.60
2018-07-27T00:57:49.430Z,51.20
2018-07-27T01:00:17.677Z,51.90
2018-07-27T01:02:45.986Z,52.50
2018-07-27T01:05:14.221Z,53.00
2018-07-27T01:07:42.449Z,51.90
2018-07-27T01:10:10.687Z,52.10
2018-07-27T01:12:38.915Z,52.80
2018-07-27T01:15:07.222Z,53.50
2018-07-27T01:17:35.709Z,53.50
2018-07-27T01:20:04.662Z,53.90
2018-07-27T01:22:32.894Z,53.10
2018-07-27T01:25:01.099Z,53.30
2018-07-27T01:27:29.312Z,53.70
2018-07-27T01:29:57.499Z,54.00
2018-07-27T01:32:25.679Z,53.60
2018-07-27T01:34:53.901Z,54.10
2018-07-27T01:37:22.197Z,54.00
2018-07-27T01:39:50.403Z,53.90
2018-07-27T01:42:18.676Z,54.00
2018-07-27T01:44:46.964Z,54.70
2018-07-27T01:47:15.246Z,55.40
2018-07-27T01:49:43.466Z,56.20
2018-07-27T01:52:11.669Z,56.20
2018-07-27T01:54:39.895Z,57.10
2018-07-27T01:57:08.109Z,57.50
2018-07-27T01:59:36.311Z,57.70
2018-07-27T02:02:04.572Z,57.40
2018-07-27T02:04:32.799Z,57.30
2018-07-27T02:07:01.007Z,57.40
2018-07-27T02:09:29.204Z,57.90
2018-07-27T02:11:57.410Z,58.60
2018-07-27T02:14:25.638Z,58.10
2018-07-27T02:16:53.848Z,58.00
2018-07-27T02:19:22.082Z,58.50
2018-07-27T02:21:50.290Z,59.10
2018-07-27T02:24:18.501Z,59.50
2018-07-27T02:29:14.709Z,59.20
2018-07-27T02:31:42.934Z,59.10
2018-07-27T02:34:11.174Z,59.00
2018-07-27T02:36:39.456Z,59.10
2018-07-27T02:39:09.265Z,60.00
2018-07-27T02:44:05.453Z,60.20
2018-07-27T02:46:33.667Z,58.70
2018-07-27T02:49:01.863Z,58.70
2018-07-27T02:51:30.276Z,58.50
2018-07-27T02:53:58.412Z,58.40
2018-07-27T02:56:26.619Z,58.30
2018-07-27T02:58:54.887Z,58.50
2018-07-27T03:01:23.119Z,58.70
2018-07-27T03:03:51.376Z,59.40
2018-07-27T03:06:19.605Z,60.10
2018-07-27T03:08:47.999Z,60.40
2018-07-27T03:11:16.243Z,60.80
2018-07-27T03:13:44.475Z,61.10
2018-07-27T03:16:12.668Z,61.20
2018-07-27T03:18:40.915Z,61.20
2018-07-27T03:21:09.095Z,61.80
2018-07-27T03:23:37.361Z,62.00
2018-07-27T03:26:05.546Z,62.00
2018-07-27T03:28:33.814Z,61.80
2018-07-27T03:31:02.019Z,63.10
2018-07-27T03:33:30.249Z,63.60
2018-07-27T03:35:58.513Z,64.00
2018-07-27T03:38:26.729Z,64.10
2018-07-27T03:40:54.965Z,64.80
2018-07-27T03:43:23.196Z,65.70
2018-07-27T03:45:51.408Z,65.90
2018-07-27T03:48:19.615Z,66.60
2018-07-27T03:50:47.842Z,67.80
2018-07-27T03:53:16.063Z,69.00
2018-07-27T03:55:44.286Z,70.20
2018-07-27T03:58:12.530Z,69.40
2018-07-27T04:00:40.754Z,69.70
2018-07-27T04:03:08.978Z,69.50
2018-07-27T04:05:37.185Z,70.50
2018-07-27T04:08:05.419Z,70.60
2018-07-27T04:10:33.661Z,71.20
2018-07-27T04:13:01.887Z,72.20
2018-07-27T04:15:30.153Z,73.10
2018-07-27T04:18:00.103Z,73.20
2018-07-27T04:20:28.416Z,73.80
2018-07-27T04:22:56.654Z,74.00
2018-07-27T04:25:24.881Z,74.30
2018-07-27T04:27:53.073Z,74.90
2018-07-27T04:30:21.321Z,75.10
2018-07-27T04:32:50.435Z,76.00
2018-07-27T04:37:46.699Z,76.90
2018-07-27T04:40:14.930Z,76.80
2018-07-27T04:42:43.156Z,76.60
2018-07-27T04:45:11.391Z,77.10
2018-07-27T04:50:08.158Z,78.50
2018-07-27T04:52:36.396Z,79.20
2018-07-27T04:55:04.937Z,78.70
2018-07-27T04:57:33.202Z,79.60
2018-07-27T05:00:01.510Z,80.60
2018-07-27T05:02:29.727Z,82.30
2018-07-27T05:04:57.967Z,82.20
2018-07-27T05:07:26.209Z,81.00
2018-07-27T05:09:54.399Z,77.50
2018-07-27T05:12:22.631Z,78.00
2018-07-27T05:14:50.849Z,78.00
2018-07-27T05:17:19.115Z,80.00
2018-07-27T05:19:47.334Z,80.40
2018-07-27T05:22:15.535Z,79.80
2018-07-27T05:24:43.869Z,78.70
2018-07-27T05:27:12.067Z,76.90
2018-07-27T05:29:40.283Z,77.00
2018-07-27T05:32:08.501Z,73.60
2018-07-27T05:34:36.895Z,74.80
2018-07-27T05:37:05.434Z,74.10
2018-07-27T05:42:01.614Z,71.00
2018-07-27T05:46:57.885Z,69.30
2018-07-27T05:49:26.017Z,71.30
2018-07-27T05:51:54.235Z,70.30
2018-07-27T05:54:22.451Z,69.10
2018-07-27T05:56:50.665Z,69.40
2018-07-27T05:59:18.907Z,69.50
2018-07-27T06:01:47.143Z,69.50
2018-07-27T06:04:15.356Z,69.70
2018-07-27T06:06:43.570Z,68.00
2018-07-27T06:09:11.962Z,66.40
2018-07-27T06:11:40.224Z,67.50
2018-07-27T06:14:08.432Z,65.30
2018-07-27T06:16:36.667Z,64.80
2018-07-27T06:19:04.904Z,64.70
2018-07-27T06:21:33.091Z,66.20
2018-07-27T06:24:01.426Z,64.30
2018-07-27T06:26:29.500Z,62.20
2018-07-27T06:28:57.714Z,62.20
2018-07-27T06:31:25.901Z,62.40
2018-07-27T06:33:54.138Z,62.20
2018-07-27T06:36:22.427Z,62.70
2018-07-27T06:38:50.625Z,64.10
2018-07-27T06:43:46.918Z,63.90
2018-07-27T06:46:15.115Z,63.50
2018-07-27T06:48:43.294Z,61.40
2018-07-27T06:51:11.535Z,62.30
2018-07-27T06:53:39.754Z,60.80
2018-07-27T06:56:07.954Z,63.50
2018-07-27T06:58:36.215Z,60.50
2018-07-27T07:01:04.399Z,60.50
2018-07-27T07:06:00.639Z,61.00
2018-07-27T07:08:28.870Z,61.50
2018-07-27T07:10:57.099Z,61.00
2018-07-27T07:13:25.335Z,60.70
2018-07-27T07:15:53.573Z,61.80
2018-07-27T07:18:21.789Z,60.10
2018-07-27T07:20:50.000Z,59.20
2018-07-27T07:23:18.209Z,59.10
2018-07-27T07:25:46.536Z,58.90
2018-07-27T07:28:14.642Z,60.10
2018-07-27T07:30:42.837Z,58.60
2018-07-27T07:35:39.025Z,57.80
2018-07-27T07:38:07.218Z,58.20
2018-07-27T07:40:35.411Z,59.20
2018-07-27T07:43:03.654Z,58.70
2018-07-27T07:45:31.866Z,58.30
2018-07-27T07:48:00.094Z,57.00
2018-07-27T07:50:28.361Z,56.60
2018-07-27T07:52:56.516Z,56.70
2018-07-27T07:55:24.754Z,55.90
2018-07-27T07:57:52.970Z,57.10
2018-07-27T08:00:21.163Z,56.10
2018-07-27T08:02:49.381Z,55.30
2018-07-27T08:05:17.597Z,54.10
2018-07-27T08:07:45.803Z,55.00
2018-07-27T08:10:14.013Z,54.90
2018-07-27T08:12:42.241Z,54.70
2018-07-27T08:15:10.467Z,54.30
2018-07-27T08:17:38.665Z,54.10
2018-07-27T08:20:06.868Z,54.50
2018-07-27T08:25:03.020Z,53.00
2018-07-27T08:27:31.272Z,54.10
2018-07-27T08:29:59.490Z,54.20
2018-07-27T08:32:27.717Z,52.50
2018-07-27T08:34:55.937Z,53.00
2018-07-27T08:37:24.153Z,52.90
2018-07-27T08:39:52.371Z,52.50
2018-07-27T08:42:20.574Z,51.10
2018-07-27T08:44:48.795Z,51.00
2018-07-27T08:47:17.058Z,52.70
2018-07-27T08:49:45.233Z,51.50
2018-07-27T08:52:13.467Z,50.40
2018-07-27T08:54:41.695Z,50.20
2018-07-27T08:59:37.881Z,49.70
2018-07-27T09:02:06.102Z,50.50
2018-07-27T09:04:34.343Z,49.90
2018-07-27T09:07:02.570Z,49.80
2018-07-27T09:09:30.783Z,49.30
2018-07-27T09:14:33.667Z,48.50
2018-07-27T09:17:01.871Z,48.20
2018-07-27T09:19:30.084Z,48.40
2018-07-27T09:21:58.328Z,48.90
2018-07-27T09:24:26.784Z,48.70
2018-07-27T09:26:54.766Z,48.40
2018-07-27T09:29:22.985Z,48.40
2018-07-27T09:31:51.295Z,47.70
2018-07-27T09:34:19.518Z,47.40
2018-07-27T09:36:47.715Z,46.90
2018-07-27T09:39:15.924Z,47.00
2018-07-27T09:41:44.100Z,46.40
2018-07-27T09:44:12.335Z,47.10
2018-07-27T09:46:40.625Z,47.70
2018-07-27T09:49:08.849Z,46.60
2018-07-27T09:51:37.072Z,46.50
2018-07-27T09:54:05.338Z,46.10
2018-07-27T09:56:34.503Z,46.40
2018-07-27T09:59:02.729Z,46.30
2018-07-27T10:01:30.972Z,47.70
2018-07-27T10:03:59.182Z,46.20
2018-07-27T10:06:27.401Z,46.10
2018-07-27T10:08:55.638Z,46.20
2018-07-27T10:11:23.864Z,45.60
2018-07-27T10:13:52.074Z,45.10
2018-07-27T10:16:20.309Z,45.00
2018-07-27T10:18:48.581Z,45.10
2018-07-27T10:21:16.760Z,44.70
2018-07-27T10:23:44.981Z,44.20
2018-07-27T10:26:13.205Z,44.30
2018-07-27T10:28:41.438Z,44.20
2018-07-27T10:31:09.655Z,44.10
2018-07-27T10:33:37.873Z,43.30
2018-07-27T10:36:06.248Z,44.20
2018-07-27T10:38:34.483Z,43.70
2018-07-27T10:41:02.713Z,43.90
2018-07-27T10:43:30.923Z,44.40
2018-07-27T10:45:59.171Z,43.70
2018-07-27T10:48:27.401Z,43.70
2018-07-27T10:50:55.636Z,43.40
2018-07-27T10:53:23.850Z,43.60
2018-07-27T10:55:52.090Z,43.50
2018-07-27T10:58:20.314Z,43.90
2018-07-27T11:00:48.503Z,43.10
2018-07-27T11:03:16.751Z,44.30
2018-07-27T11:05:44.997Z,43.60
2018-07-27T11:08:13.209Z,43.20
2018-07-27T11:10:41.457Z,43.10
2018-07-27T11:13:09.706Z,41.30
2018-07-27T11:15:37.915Z,41.10
2018-07-27T11:18:06.300Z,41.20
2018-07-27T11:20:34.507Z,42.10
2018-07-27T11:23:02.738Z,42.90
2018-07-27T11:25:30.953Z,42.60
2018-07-27T11:27:59.196Z,42.00
2018-07-27T11:30:27.421Z,42.60
2018-07-27T11:32:55.613Z,42.00
2018-07-27T11:35:23.920Z,42.00
2018-07-27T11:37:52.133Z,40.00
2018-07-27T11:40:20.409Z,39.10
2018-07-27T11:42:48.598Z,38.30
2018-07-27T11:47:44.811Z,36.90
2018-07-27T11:50:13.022Z,35.50
2018-07-27T11:52:41.299Z,35.30
2018-07-27T11:55:09.532Z,35.00
2018-07-27T12:00:05.670Z,33.40
2018-07-27T12:02:33.873Z,32.50
2018-07-27T12:05:02.065Z,32.20
2018-07-27T12:07:30.285Z,31.00
2018-07-27T12:09:58.531Z,30.50
2018-07-27T12:12:26.823Z,30.60
2018-07-27T12:14:55.154Z,29.90
2018-07-27T12:17:23.358Z,29.50
2018-07-27T12:19:51.606Z,28.90
2018-07-27T12:22:19.811Z,29.30
2018-07-27T12:24:48.020Z,28.30
2018-07-27T12:27:16.227Z,27.60
2018-07-27T12:29:44.446Z,27.30
2018-07-27T12:32:12.667Z,27.00
2018-07-27T12:34:40.911Z,26.50
2018-07-27T12:37:09.104Z,26.20
2018-07-27T12:42:05.274Z,26.30
2018-07-27T12:44:33.492Z,26.60
2018-07-27T12:47:01.675Z,26.10
2018-07-27T12:49:29.883Z,25.90
2018-07-27T12:51:58.097Z,24.40
2018-07-27T12:54:26.320Z,24.60
2018-07-27T12:56:54.581Z,24.50
2018-07-27T12:59:22.799Z,24.30
2018-07-27T13:19:02.766Z,23.90
2018-07-27T13:21:30.980Z,23.50
2018-07-27T13:24:00.447Z,23.80
2018-07-27T13:28:56.701Z,23.70
2018-07-27T13:37:07.196Z,23.40
2018-07-27T13:39:36.082Z,24.10
2018-07-27T13:42:05.302Z,24.30
2018-07-27T13:44:34.714Z,23.30
2018-07-27T13:47:03.583Z,23.00
2018-07-27T13:49:31.827Z,22.30
2018-07-27T13:52:00.299Z,22.90
2018-07-27T13:54:29.525Z,22.80
2018-07-27T13:56:57.044Z,22.40
2018-07-27T13:59:24.576Z,22.30
2018-07-27T14:01:52.117Z,22.10
2018-07-27T14:04:19.672Z,22.20
2018-07-27T14:06:49.545Z,21.70
2018-07-27T14:09:17.066Z,21.70
2018-07-27T14:11:44.638Z,21.20
2018-07-27T14:16:40.332Z,21.50
2018-07-27T14:19:07.846Z,21.80
2018-07-27T14:21:35.516Z,21.90
2018-07-27T14:24:03.016Z,21.90
2018-07-27T14:28:57.922Z,21.60
2018-07-27T14:31:25.532Z,22.20
2018-07-27T14:33:53.823Z,21.70
2018-07-27T14:36:21.511Z,21.60
2018-07-27T14:38:49.629Z,22.10
2018-07-27T14:41:17.490Z,21.70
2018-07-27T14:43:45.022Z,21.50
2018-07-27T14:48:39.868Z,21.20
2018-07-27T14:51:07.399Z,21.50
2018-07-27T14:53:34.963Z,21.40
2018-07-27T14:56:02.475Z,21.10
2018-07-27T14:58:29.994Z,21.10
2018-07-27T15:00:57.541Z,21.20
2018-07-27T15:03:25.167Z,21.20
2018-07-27T15:05:52.795Z,21.40
2018-07-27T15:08:20.375Z,21.40
2018-07-27T15:10:47.917Z,21.50
2018-07-27T15:13:15.436Z,21.60
2018-07-27T15:15:43.521Z,21.20
2018-07-27T15:18:11.055Z,21.70
2018-07-27T15:20:38.591Z,21.00
2018-07-27T15:23:06.133Z,21.60
2018-07-27T15:25:33.825Z,21.00
2018-07-27T15:28:01.386Z,21.70
2018-07-27T15:30:28.942Z,21.70
2018-07-27T15:32:56.549Z,21.20
2018-07-27T15:35:24.124Z,21.20
2018-07-27T15:37:51.782Z,21.30
2018-07-27T15:40:19.307Z,21.80
2018-07-27T15:59:24.047Z,21.00
2018-07-27T16:01:51.605Z,21.10
2018-07-27T16:04:19.160Z,21.40
2018-07-27T16:06:46.677Z,21.40
2018-07-27T16:09:14.198Z,21.20
2018-07-27T16:11:41.727Z,20.90
2018-07-27T16:14:09.242Z,21.00
2018-07-27T16:16:36.950Z,20.90
2018-07-27T16:19:04.484Z,21.00
2018-07-27T16:21:32.018Z,20.90
2018-07-27T16:23:59.527Z,21.00
2018-07-27T16:26:27.038Z,21.00
2018-07-27T16:28:54.579Z,20.90
2018-07-27T16:31:22.250Z,20.80
2018-07-27T16:33:49.792Z,21.30
2018-07-27T16:36:17.365Z,21.20
2018-07-27T16:38:44.867Z,21.20
2018-07-27T16:41:12.408Z,21.40
2018-07-27T16:43:39.955Z,21.60
2018-07-27T16:46:07.491Z,21.10
2018-07-27T16:48:35.025Z,21.20
2018-07-27T16:51:02.546Z,21.00
2018-07-27T16:53:30.103Z,21.10
2018-07-27T16:55:57.638Z,21.40
2018-07-27T17:15:44.204Z,21.40
2018-07-27T17:18:12.465Z,21.30
2018-07-27T17:20:40.756Z,21.20
2018-07-27T17:23:09.014Z,21.40
2018-07-27T17:25:37.284Z,21.00
2018-07-27T17:28:05.610Z,21.30
2018-07-27T17:30:33.885Z,20.90
2018-07-27T17:35:30.109Z,20.70
2018-07-27T17:37:58.399Z,21.10
2018-07-27T17:40:26.603Z,20.80
2018-07-27T17:42:54.957Z,20.70
2018-07-27T17:45:23.107Z,20.80
2018-07-27T17:47:51.316Z,21.00
2018-07-27T17:50:19.566Z,21.00
2018-07-27T17:52:47.818Z,21.60
2018-07-27T17:55:16.038Z,21.40
2018-07-27T17:57:44.263Z,22.60
2018-07-27T18:00:12.467Z,22.30
2018-07-27T18:02:40.679Z,22.70
2018-07-27T18:05:08.928Z,23.20
2018-07-27T18:07:37.306Z,23.20
2018-07-27T18:10:05.441Z,23.70
2018-07-27T18:12:33.701Z,24.80
2018-07-27T18:34:48.729Z,27.70
2018-07-27T18:37:16.949Z,28.40
2018-07-27T18:39:45.198Z,28.40
2018-07-27T18:42:13.396Z,28.30
2018-07-27T18:44:41.706Z,28.60
2018-07-27T18:47:10.124Z,29.40
2018-07-27T18:49:38.413Z,29.30
2018-07-27T18:54:34.581Z,29.30
2018-07-27T18:57:02.792Z,29.40
2018-07-27T18:59:30.998Z,29.90
2018-07-27T19:01:59.281Z,30.30
2018-07-27T19:04:27.509Z,30.00
2018-07-27T19:06:56.319Z,31.30
2018-07-27T19:09:24.541Z,30.60
2018-07-27T19:11:52.769Z,31.70
2018-07-27T19:14:20.968Z,31.00
2018-07-27T19:34:06.583Z,33.70
2018-07-27T19:36:34.841Z,33.30
2018-07-27T19:39:03.211Z,33.50
2018-07-27T19:41:31.494Z,33.80
2018-07-27T19:43:59.715Z,34.30
2018-07-27T19:46:27.910Z,34.70
2018-07-27T19:48:56.113Z,34.40
2018-07-27T19:51:25.143Z,34.80
2018-07-27T19:53:53.362Z,35.90
2018-07-27T19:56:21.555Z,35.70
2018-07-27T19:58:49.799Z,35.30
2018-07-27T20:01:18.043Z,35.50
2018-07-27T20:03:46.259Z,35.70
2018-07-27T20:23:32.594Z,36.50
2018-07-27T20:26:00.786Z,36.70
2018-07-27T20:28:29.064Z,37.10
2018-07-27T20:30:57.289Z,37.00
2018-07-27T20:33:25.486Z,38.00
2018-07-27T20:35:54.158Z,37.60
2018-07-27T20:38:22.388Z,38.20
2018-07-27T20:40:50.617Z,38.40
2018-07-27T20:43:18.892Z,38.60
2018-07-27T20:45:47.119Z,39.20
2018-07-27T20:48:15.321Z,38.70
2018-07-27T20:50:43.561Z,38.70
2018-07-27T20:53:11.753Z,39.10
2018-07-27T20:55:40.139Z,39.50
2018-07-27T20:58:08.368Z,40.00
2018-07-27T21:00:36.601Z,40.30
2018-07-27T21:03:04.873Z,40.40
2018-07-27T21:05:33.069Z,40.80
2018-07-27T21:08:01.274Z,40.80
2018-07-27T21:10:29.538Z,40.50
2018-07-27T21:12:57.738Z,40.50
2018-07-27T21:15:25.939Z,40.50
2018-07-27T21:17:54.154Z,40.70
2018-07-27T21:20:22.379Z,40.60
2018-07-27T21:22:50.591Z,40.90
2018-07-27T21:25:18.821Z,41.10
2018-07-27T21:27:47.033Z,41.70
2018-07-27T21:32:43.195Z,41.10
2018-07-27T21:35:11.406Z,41.00
2018-07-27T21:40:07.551Z,41.30
2018-07-27T21:42:35.771Z,41.30
2018-07-27T21:47:31.956Z,41.60
2018-07-27T21:50:00.159Z,41.70
2018-07-27T21:52:28.389Z,42.00
2018-07-27T21:54:56.602Z,42.10
2018-07-27T21:57:24.815Z,42.20
2018-07-27T21:59:52.993Z,42.50
2018-07-27T22:02:21.214Z,42.30
2018-07-27T22:04:49.462Z,42.40
2018-07-27T22:07:17.702Z,42.50
2018-07-27T22:09:45.973Z,42.70
2018-07-27T22:12:14.241Z,42.80
2018-07-27T22:14:42.517Z,43.40
2018-07-27T22:17:10.726Z,43.50
2018-07-27T22:36:50.877Z,44.20
2018-07-27T22:39:19.097Z,44.60
2018-07-27T22:41:47.324Z,44.90
2018-07-27T22:49:11.522Z,45.10
2018-07-27T22:51:39.760Z,45.10
2018-07-27T23:11:26.550Z,46.60
2018-07-27T23:13:54.774Z,46.90
2018-07-27T23:16:23.000Z,46.80
2018-07-27T23:38:35.920Z,47.70
2018-07-27T23:41:04.168Z,48.00
2018-07-27T23:43:32.395Z,48.20
2018-07-27T23:46:00.639Z,48.30
2018-07-27T23:48:28.872Z,48.50
2018-07-27T23:53:25.051Z,48.80
2018-07-27T23:55:53.269Z,49.30
2018-07-27T23:58:21.487Z,48.40
